^^
Saratoga-Weather Station Historical Data
Daily Summary for September 25, 2022 Units:  English    Metric   Both
Daily Weekly Monthly Yearly Custom
  High: Low: Average:
Temperature: 61 °F 47.3 °F 56.3 °F
Dew Point: 52.5 °F 43.7 °F 49.5 °F
Humidity: 88% 60% 78%
Wind Speed: 8.1mph 0mph 1.8mph
Wind Gust: 10mph - -
Wind- - West
Pressure: 29.9 in 29.9 in -
Precipitation: 0 in    
Historical Graphs
 
 
Tabular Data for September 25, 2022
Time Temperature Dew Point Pressure Wind Wind Speed Wind Gust Humidity Rainfall Rate (Hourly) solar
00:02 56.7 °F 51.3 °F 29.9 in West 2.9 mph 4 mph 82% 0 in 0 W/m2
00:07 56.5 °F 51.1 °F 29.9 in WSW 2 mph 3 mph 82% 0 in 0 W/m2
00:12 56.3 °F 50.9 °F 29.9 in West 2 mph 3 mph 82% 0 in 0 W/m2
00:17 56.1 °F 50.7 °F 29.9 in WSW 2 mph 3 mph 82% 0 in 0 W/m2
00:22 56.1 °F 51.1 °F 29.9 in West 0.9 mph 4 mph 83% 0 in 0 W/m2
00:27 55.9 °F 50.9 °F 29.9 in West 2.9 mph 4 mph 83% 0 in 0 W/m2
00:32 55.9 °F 50.9 °F 29.9 in West 0.9 mph 4 mph 83% 0 in 0 W/m2
00:37 55.9 °F 50.9 °F 29.9 in West 2 mph 3 mph 83% 0 in 0 W/m2
00:42 55.9 °F 50.9 °F 29.9 in Calm   2 mph 83% 0 in 0 W/m2
00:47 55.8 °F 50.7 °F 29.9 in West 2 mph 3 mph 83% 0 in 0 W/m2
00:52 55.8 °F 50.7 °F 29.9 in WSW 2.9 mph 3 mph 83% 0 in 0 W/m2
00:57 55.8 °F 50.7 °F 29.9 in West 4 mph 4 mph 83% 0 in 0 W/m2
01:02 55.8 °F 50.7 °F 29.9 in WSW 2 mph 5 mph 83% 0 in 0 W/m2
01:07 55.6 °F 50.5 °F 29.9 in West 2.9 mph 3 mph 83% 0 in 0 W/m2
01:12 55.6 °F 50.5 °F 29.9 in West 2 mph 5 mph 83% 0 in 0 W/m2
01:17 55.6 °F 50.5 °F 29.9 in West 2 mph 3 mph 83% 0 in 0 W/m2
01:22 55.6 °F 50.5 °F 29.9 in WNW 0.9 mph 4 mph 83% 0 in 0 W/m2
01:27 55.6 °F 50.5 °F 29.9 in WNW 2.9 mph 4 mph 83% 0 in 0 W/m2
01:32 55.6 °F 50.9 °F 29.9 in West 2.9 mph 4 mph 84% 0 in 0 W/m2
01:37 55.6 °F 50.9 °F 29.9 in WSW 2 mph 3 mph 84% 0 in 0 W/m2
01:42 55.6 °F 50.9 °F 29.9 in West 2 mph 3 mph 84% 0 in 0 W/m2
01:47 55.6 °F 51.1 °F 29.9 in WNW 2 mph 3 mph 85% 0 in 0 W/m2
01:52 55.4 °F 50.9 °F 29.9 in West 2.9 mph 6 mph 85% 0 in 0 W/m2
01:57 55.2 °F 50.7 °F 29.9 in West 2 mph 3 mph 85% 0 in 0 W/m2
02:02 55.2 °F 50.7 °F 29.9 in West 2 mph 3 mph 85% 0 in 0 W/m2
02:07 55.2 °F 50.7 °F 29.9 in WNW 2 mph 3 mph 85% 0 in 0 W/m2
02:12 55.2 °F 51.1 °F 29.9 in WNW 2.9 mph 5 mph 86% 0 in 0 W/m2
02:17 55 °F 50.9 °F 29.9 in West 2 mph 4 mph 86% 0 in 0 W/m2
02:22 55 °F 50.9 °F 29.9 in West 2 mph 6 mph 86% 0 in 0 W/m2
02:27 55 °F 50.9 °F 29.9 in West 2.9 mph 4 mph 86% 0 in 0 W/m2
02:32 55 °F 50.9 °F 29.9 in WSW 2 mph 4 mph 86% 0 in 0 W/m2
02:37 55 °F 50.9 °F 29.9 in West 0.9 mph 4 mph 86% 0 in 0 W/m2
02:42 55 °F 50.9 °F 29.9 in WSW 2 mph 4 mph 86% 0 in 0 W/m2
02:47 55 °F 50.9 °F 29.9 in West 0.9 mph 3 mph 86% 0 in 0 W/m2
02:52 55 °F 50.9 °F 29.9 in West 0.9 mph 3 mph 86% 0 in 0 W/m2
02:57 55 °F 50.9 °F 29.9 in Calm   2 mph 86% 0 in 0 W/m2
03:02 55 °F 50.9 °F 29.9 in West 0.9 mph 2 mph 86% 0 in 0 W/m2
03:07 55 °F 50.9 °F 29.9 in West 0.9 mph 2 mph 86% 0 in 0 W/m2
03:12 54.9 °F 50.7 °F 29.9 in West 2 mph 3 mph 86% 0 in 0 W/m2
03:17 54.9 °F 50.7 °F 29.9 in West 0.9 mph 3 mph 86% 0 in 0 W/m2
03:22 54.9 °F 50.7 °F 29.9 in West 2.9 mph 4 mph 86% 0 in 0 W/m2
03:27 54.9 °F 50.7 °F 29.9 in West 4 mph 4 mph 86% 0 in 0 W/m2
03:32 54.9 °F 50.7 °F 29.9 in West 4 mph 4 mph 86% 0 in 0 W/m2
03:37 54.9 °F 50.7 °F 29.9 in West 2 mph 4 mph 86% 0 in 0 W/m2
03:42 54.9 °F 50.7 °F 29.9 in West 0.9 mph 3 mph 86% 0 in 0 W/m2
03:47 54.9 °F 50.7 °F 29.9 in West 0.9 mph 4 mph 86% 0 in 0 W/m2
03:52 54.9 °F 50.7 °F 29.9 in West 2 mph 2 mph 86% 0 in 0 W/m2
03:57 54.9 °F 50.7 °F 29.9 in West 2 mph 3 mph 86% 0 in 0 W/m2
04:02 54.9 °F 50.7 °F 29.9 in West 2 mph 4 mph 86% 0 in 0 W/m2
04:07 54.9 °F 50.7 °F 29.9 in West 2.9 mph 3 mph 86% 0 in 0 W/m2
04:12 54.9 °F 50.7 °F 29.9 in West 2 mph 3 mph 86% 0 in 0 W/m2
04:17 54.9 °F 50.7 °F 29.9 in WNW 2 mph 4 mph 86% 0 in 0 W/m2
04:22 54.9 °F 50.7 °F 29.9 in WNW 2 mph 3 mph 86% 0 in 0 W/m2
04:27 54.9 °F 50.7 °F 29.9 in West 2.9 mph 3 mph 86% 0 in 0 W/m2
04:32 54.9 °F 50.7 °F 29.9 in West 2.9 mph 3 mph 86% 0 in 0 W/m2
04:37 54.9 °F 50.7 °F 29.9 in West 2 mph 2 mph 86% 0 in 0 W/m2
04:42 54.9 °F 50.7 °F 29.9 in West 2 mph 2 mph 86% 0 in 0 W/m2
04:47 54.9 °F 50.7 °F 29.9 in West 2 mph 3 mph 86% 0 in 0 W/m2
04:52 54.9 °F 50.7 °F 29.9 in WNW 2 mph 4 mph 86% 0 in 0 W/m2
04:57 54.9 °F 50.7 °F 29.9 in West 2 mph 3 mph 86% 0 in 0 W/m2
05:02 54.9 °F 50.7 °F 29.9 in West 2 mph 4 mph 86% 0 in 0 W/m2
05:07 54.9 °F 50.7 °F 29.9 in NW 0.9 mph 4 mph 86% 0 in 0 W/m2
05:12 54.9 °F 50.7 °F 29.9 in NW 2 mph 2 mph 86% 0 in 0 W/m2
05:17 54.9 °F 50.7 °F 29.9 in WNW 2 mph 2 mph 86% 0 in 0 W/m2
05:22 54.9 °F 50.7 °F 29.9 in WNW 0.9 mph 3 mph 86% 0 in 0 W/m2
05:27 54.9 °F 50.7 °F 29.9 in Calm   3 mph 86% 0 in 0 W/m2
05:32 54.9 °F 50.7 °F 29.9 in West 2.9 mph 3 mph 86% 0 in 0 W/m2
05:37 54.9 °F 50.7 °F 29.9 in West 2 mph 4 mph 86% 0 in 0 W/m2
05:42 54.7 °F 50.5 °F 29.9 in WNW 2 mph 3 mph 86% 0 in 0 W/m2
05:47 54.3 °F 50.2 °F 29.9 in West 2 mph 4 mph 86% 0 in 0 W/m2
05:52 54.3 °F 50.5 °F 29.9 in WSW 2.9 mph 7 mph 87% 0 in 0 W/m2
05:57 54.1 °F 50.4 °F 29.9 in WNW 2.9 mph 3 mph 87% 0 in 0 W/m2
06:02 54 °F 50.2 °F 29.9 in West 0.9 mph 4 mph 87% 0 in 0 W/m2
06:07 54 °F 50.5 °F 29.9 in West 2 mph 3 mph 88% 0 in 0 W/m2
06:12 54 °F 50.5 °F 29.9 in West 2 mph 4 mph 88% 0 in 0 W/m2
06:17 54 °F 50.5 °F 29.9 in West 4 mph 6 mph 88% 0 in 0 W/m2
06:22 54 °F 50.5 °F 29.9 in West 4 mph 4 mph 88% 0 in 0 W/m2
06:27 54.1 °F 50.7 °F 29.9 in West 4 mph 4 mph 88% 0 in 0 W/m2
06:32 54.1 °F 50.7 °F 29.9 in WNW 2.9 mph 4 mph 88% 0 in 0 W/m2
06:37 54.3 °F 50.9 °F 29.9 in WSW 2 mph 6 mph 88% 0 in 0 W/m2
06:42 54.5 °F 51.1 °F 29.9 in West 2 mph 4 mph 88% 0 in 0 W/m2
06:47 54.7 °F 50.9 °F 29.9 in West 2.9 mph 3 mph 87% 0 in 0 W/m2
06:52 54.7 °F 50.9 °F 29.9 in West 0.9 mph 4 mph 87% 0 in 0 W/m2
06:57 54.7 °F 50.9 °F 29.9 in WNW 0.9 mph 4 mph 87% 0 in 0 W/m2
07:03 54.7 °F 50.9 °F 29.9 in West 2 mph 6 mph 87% 0 in 0 W/m2
07:08 54.7 °F 50.9 °F 29.9 in WNW 2.9 mph 6 mph 87% 0 in 0 W/m2
07:13 54.9 °F 51.1 °F 29.9 in West 2 mph 4 mph 87% 0 in 0 W/m2
07:18 54.9 °F 51.1 °F 29.9 in WNW 2.9 mph 4 mph 87% 0 in 0 W/m2
07:23 54.9 °F 51.1 °F 29.9 in West 4 mph 4 mph 87% 0 in 0 W/m2
07:28 54.9 °F 51.1 °F 29.9 in WNW 2 mph 3 mph 87% 0 in 0 W/m2
07:33 55 °F 50.9 °F 29.9 in West 2.9 mph 3 mph 86% 0 in 0 W/m2
07:38 55 °F 50.9 °F 29.9 in West 0.9 mph 3 mph 86% 0 in 5 W/m2
07:43 55 °F 50.9 °F 29.9 in NW 2.9 mph 9 mph 86% 0 in 7 W/m2
07:48 55 °F 50.9 °F 29.9 in NW 2 mph 4 mph 86% 0 in 11 W/m2
07:53 55 °F 50.9 °F 29.9 in NNW 0.9 mph 9 mph 86% 0 in 12 W/m2
07:58 55 °F 50.9 °F 29.9 in WNW 0.9 mph 2 mph 86% 0 in 14 W/m2
08:03 55.2 °F 51.1 °F 29.9 in West 2.9 mph 6 mph 86% 0 in 14 W/m2
08:08 55.2 °F 51.1 °F 29.9 in West 6 mph 6 mph 86% 0 in 16 W/m2
08:13 55.4 °F 50.9 °F 29.9 in WNW 2 mph 5 mph 85% 0 in 21 W/m2
08:18 55.4 °F 50.9 °F 29.9 in Calm   3 mph 85% 0 in 18 W/m2
08:23 55.6 °F 51.1 °F 29.9 in West 2 mph 5 mph 85% 0 in 19 W/m2
08:28 55.6 °F 51.1 °F 29.9 in WNW 2 mph 6 mph 85% 0 in 23 W/m2
08:33 55.6 °F 51.1 °F 29.9 in WNW 0.9 mph 2 mph 85% 0 in 25 W/m2
08:38 55.6 °F 51.1 °F 29.9 in WSW 2.9 mph 4 mph 85% 0 in 33 W/m2
08:43 55.6 °F 51.1 °F 29.9 in WNW 2.9 mph 4 mph 85% 0 in 37 W/m2
08:48 55.6 °F 51.1 °F 29.9 in WNW 0.9 mph 2 mph 85% 0 in 33 W/m2
08:53 55.6 °F 51.1 °F 29.9 in Calm   4 mph 85% 0 in 32 W/m2
08:58 55.6 °F 51.1 °F 29.9 in WSW 4 mph 4 mph 85% 0 in 39 W/m2
09:03 55.6 °F 51.1 °F 29.9 in West 2 mph 4 mph 85% 0 in 51 W/m2
09:08 55.8 °F 51.3 °F 29.9 in WNW 2.9 mph 4 mph 85% 0 in 60 W/m2
09:13 55.8 °F 51.3 °F 29.9 in West 2.9 mph 3 mph 85% 0 in 60 W/m2
09:18 55.9 °F 51.4 °F 29.9 in WNW 0.9 mph 2 mph 85% 0 in 77 W/m2
09:23 55.9 °F 51.4 °F 29.9 in West 2.9 mph 3 mph 85% 0 in 76 W/m2
09:28 56.1 °F 51.4 °F 29.9 in NW 0.9 mph 3 mph 84% 0 in 77 W/m2
09:33 56.3 °F 51.4 °F 29.9 in Calm   3 mph 84% 0 in 81 W/m2
09:38 56.5 °F 52 °F 29.9 in NNW 2 mph 3 mph 85% 0 in 76 W/m2
09:43 56.7 °F 51.8 °F 29.9 in NNW 0.9 mph 4 mph 84% 0 in 63 W/m2
09:48 56.8 °F 51.8 °F 29.9 in NNW 2 mph 3 mph 83% 0 in 91 W/m2
09:53 57 °F 52 °F 29.9 in WNW 0.9 mph 8 mph 83% 0 in 102 W/m2
09:58 57.2 °F 51.8 °F 29.9 in NW 0.9 mph 4 mph 82% 0 in 97 W/m2
10:03 57.4 °F 52 °F 29.9 in North 2 mph 8 mph 82% 0 in 91 W/m2
10:08 57.4 °F 52 °F 29.9 in WNW 2.9 mph 6 mph 82% 0 in 72 W/m2
10:13 57.4 °F 52 °F 29.9 in West 0.9 mph 7 mph 82% 0 in 88 W/m2
10:18 57.4 °F 52 °F 29.9 in West 4 mph 4 mph 82% 0 in 151 W/m2
10:23 57.6 °F 52.2 °F 29.9 in West 6.9 mph 7 mph 82% 0 in 149 W/m2
10:28 57.6 °F 51.8 °F 29.9 in WNW 4 mph 7 mph 81% 0 in 162 W/m2
10:33 57.6 °F 51.8 °F 29.9 in NW 2 mph 5 mph 81% 0 in 183 W/m2
10:38 57.7 °F 52 °F 29.9 in WNW 6.9 mph 10 mph 81% 0 in 160 W/m2
10:43 57.9 °F 51.8 °F 29.9 in WNW 0.9 mph 6 mph 80% 0 in 174 W/m2
10:48 57.9 °F 51.8 °F 29.9 in ENE 0.9 mph 4 mph 80% 0 in 190 W/m2
10:53 58.3 °F 52.5 °F 29.9 in WSW 2 mph 7 mph 81% 0 in 188 W/m2
10:58 58.5 °F 52.3 °F 29.9 in NW 0.9 mph 2 mph 80% 0 in 155 W/m2
11:03 58.5 °F 52 °F 29.9 in WNW 2 mph 4 mph 79% 0 in 114 W/m2
11:08 58.6 °F 52.2 °F 29.9 in West 2.9 mph 3 mph 79% 0 in 83 W/m2
11:13 58.5 °F 52 °F 29.9 in WNW 2.9 mph 7 mph 79% 0 in 91 W/m2
11:18 58.5 °F 52 °F 29.9 in NNW 4 mph 8 mph 79% 0 in 109 W/m2
11:23 58.5 °F 52 °F 29.9 in NNW 0.9 mph 7 mph 79% 0 in 95 W/m2
11:28 58.3 °F 51.8 °F 29.9 in NW 0.9 mph 4 mph 79% 0 in 104 W/m2
11:33 58.3 °F 51.8 °F 29.9 in NW 2.9 mph 6 mph 79% 0 in 153 W/m2
11:38 58.3 °F 51.8 °F 29.9 in West 2.9 mph 6 mph 79% 0 in 142 W/m2
11:43 58.5 °F 52 °F 29.9 in NNW 2 mph 4 mph 79% 0 in 125 W/m2
11:48 58.5 °F 52 °F 29.9 in WSW 2 mph 10 mph 79% 0 in 188 W/m2
11:53 58.5 °F 52 °F 29.9 in East 2.9 mph 8 mph 79% 0 in 202 W/m2
11:58 58.6 °F 51.8 °F 29.9 in NW 0.9 mph 10 mph 78% 0 in 211 W/m2
12:03 58.8 °F 52 °F 29.9 in West 4 mph 6 mph 78% 0 in 241 W/m2
12:08 58.8 °F 52 °F 29.9 in North 4 mph 5 mph 78% 0 in 128 W/m2
12:13 58.8 °F 52 °F 29.9 in North 2 mph 7 mph 78% 0 in 130 W/m2
12:18 58.8 °F 52 °F 29.9 in NW 2 mph 2 mph 78% 0 in 149 W/m2
12:23 58.8 °F 51.6 °F 29.9 in NE 4 mph 4 mph 77% 0 in 195 W/m2
12:28 59 °F 51.8 °F 29.9 in WSW 4 mph 8 mph 77% 0 in 151 W/m2
12:33 58.8 °F 51.6 °F 29.9 in Calm   3 mph 77% 0 in 58 W/m2
12:38 58.6 °F 51.4 °F 29.9 in NNE 0.9 mph 4 mph 77% 0 in 35 W/m2
12:43 58.6 °F 51.8 °F 29.9 in WNW 0.9 mph 4 mph 78% 0 in 40 W/m2
12:48 58.5 °F 51.6 °F 29.9 in NNW 2 mph 6 mph 78% 0 in 47 W/m2
12:53 58.5 °F 52 °F 29.9 in NW 0.9 mph 3 mph 79% 0 in 51 W/m2
12:58 58.3 °F 51.8 °F 29.9 in NNW 2 mph 6 mph 79% 0 in 74 W/m2
13:03 58.3 °F 51.8 °F 29.9 in WNW 2 mph 2 mph 79% 0 in 118 W/m2
13:08 58.5 °F 52 °F 29.9 in West 4 mph 5 mph 79% 0 in 125 W/m2
13:13 58.5 °F 52 °F 29.9 in WNW 2 mph 2 mph 79% 0 in 130 W/m2
13:18 58.6 °F 51.8 °F 29.9 in West 6 mph 8 mph 78% 0 in 130 W/m2
13:23 58.6 °F 51.4 °F 29.9 in WNW 2 mph 3 mph 77% 0 in 130 W/m2
13:28 58.8 °F 51.6 °F 29.9 in West 2.9 mph 3 mph 77% 0 in 111 W/m2
13:33 59 °F 51.8 °F 29.9 in WNW 6.9 mph 8 mph 77% 0 in 83 W/m2
13:38 59.2 °F 51.6 °F 29.9 in NW 2 mph 4 mph 76% 0 in 97 W/m2
13:43 59.2 °F 52 °F 29.9 in South 8 mph 8 mph 77% 0 in 118 W/m2
13:48 59.2 °F 51.6 °F 29.9 in NNW 2 mph 4 mph 76% 0 in 107 W/m2
13:53 59 °F 51.8 °F 29.9 in WNW 2.9 mph 5 mph 77% 0 in 90 W/m2
13:58 58.8 °F 51.3 °F 29.9 in West 2.9 mph 7 mph 76% 0 in 81 W/m2
14:03 58.6 °F 51.1 °F 29.9 in Calm   3 mph 76% 0 in 84 W/m2
14:08 58.6 °F 51.1 °F 29.9 in East 0.9 mph 2 mph 76% 0 in 104 W/m2
14:13 58.8 °F 50.9 °F 29.9 in Calm   3 mph 75% 0 in 109 W/m2
14:18 58.8 °F 51.3 °F 29.9 in Calm   3 mph 76% 0 in 139 W/m2
14:23 59 °F 51.1 °F 29.9 in NW 0.9 mph 5 mph 75% 0 in 176 W/m2
14:28 59.2 °F 51.3 °F 29.9 in WNW 2 mph 3 mph 75% 0 in 204 W/m2
14:33 59.4 °F 51.1 °F 29.9 in East 2 mph 4 mph 74% 0 in 149 W/m2
14:38 59.5 °F 50.9 °F 29.9 in WSW 8.1 mph 9 mph 73% 0 in 63 W/m2
14:43 59.2 °F 50.5 °F 29.9 in WNW 6 mph 9 mph 73% 0 in 69 W/m2
14:48 58.8 °F 50.5 °F 29.9 in NE 2.9 mph 9 mph 74% 0 in 56 W/m2
14:53 58.8 °F 50.9 °F 29.9 in NNW 0.9 mph 5 mph 75% 0 in 63 W/m2
14:58 58.6 °F 50.7 °F 29.9 in Calm   9 mph 75% 0 in 74 W/m2
15:03 58.6 °F 51.1 °F 29.9 in ENE 4.9 mph 5 mph 76% 0 in 100 W/m2
15:08 58.5 °F 50.5 °F 29.9 in SE 0.9 mph 2 mph 75% 0 in 130 W/m2
15:13 58.6 °F 50.4 °F 29.9 in Calm   4 mph 74% 0 in 158 W/m2
15:18 58.6 °F 50.4 °F 29.9 in NW 2.9 mph 4 mph 74% 0 in 165 W/m2
15:23 58.8 °F 50.2 °F 29.9 in NNW 0.9 mph 4 mph 73% 0 in 167 W/m2
15:28 59.2 °F 50.2 °F 29.9 in NW 2 mph 2 mph 72% 0 in 209 W/m2
15:33 59.4 °F 50.4 °F 29.9 in East 4 mph 6 mph 72% 0 in 258 W/m2
15:38 59.7 °F 50 °F 29.9 in NNW 0.9 mph 3 mph 70% 0 in 338 W/m2
15:43 60.3 °F 50.4 °F 29.9 in ENE 2.9 mph 4 mph 70% 0 in 278 W/m2
15:48 60.4 °F 50.2 °F 29.9 in NE 2 mph 4 mph 69% 0 in 225 W/m2
15:53 60.6 °F 49.3 °F 29.9 in SE 2.9 mph 3 mph 66% 0 in 188 W/m2
15:58 60.6 °F 48.7 °F 29.9 in NE 4 mph 5 mph 65% 0 in 181 W/m2
16:03 60.4 °F 48.6 °F 29.9 in NE 2 mph 7 mph 65% 0 in 260 W/m2
16:08 60.6 °F 48.7 °F 29.9 in North 0.9 mph 3 mph 65% 0 in 204 W/m2
16:13 60.8 °F 48.6 °F 29.9 in WNW 0.9 mph 5 mph 64% 0 in 149 W/m2
16:18 60.8 °F 48.6 °F 29.9 in SE 0.9 mph 3 mph 64% 0 in 127 W/m2
16:23 60.6 °F 48.4 °F 29.9 in ENE 0.9 mph 2 mph 64% 0 in 155 W/m2
16:28 60.6 °F 48.4 °F 29.9 in ENE 2 mph 6 mph 64% 0 in 200 W/m2
16:33 60.8 °F 47.7 °F 29.9 in West 2.9 mph 6 mph 62% 0 in 186 W/m2
16:38 60.8 °F 47.3 °F 29.9 in West 0.9 mph 4 mph 61% 0 in 185 W/m2
16:43 60.8 °F 46.8 °F 29.9 in WNW 0.9 mph 3 mph 60% 0 in 146 W/m2
16:48 60.8 °F 47.3 °F 29.9 in WNW 0.9 mph 4 mph 61% 0 in 125 W/m2
16:53 60.8 °F 47.3 °F 29.9 in WNW 2.9 mph 3 mph 61% 0 in 139 W/m2
16:58 60.8 °F 47.3 °F 29.9 in NW 0.9 mph 3 mph 61% 0 in 155 W/m2
17:03 61 °F 47.8 °F 29.9 in NW 2.9 mph 6 mph 62% 0 in 118 W/m2
17:08 60.4 °F 46.9 °F 29.9 in WNW 2 mph 6 mph 61% 0 in 100 W/m2
17:13 60.3 °F 46.8 °F 29.9 in West 6.9 mph 8 mph 61% 0 in 139 W/m2
17:18 60.3 °F 47.1 °F 29.9 in West 4 mph 8 mph 62% 0 in 380 W/m2
17:23 60.4 °F 46.9 °F 29.9 in WNW 2.9 mph 7 mph 61% 0 in 120 W/m2
17:28 60.4 °F 47.3 °F 29.9 in NW 0.9 mph 3 mph 62% 0 in 86 W/m2
17:33 60.3 °F 47.1 °F 29.9 in WNW 4 mph 7 mph 62% 0 in 97 W/m2
17:38 60.3 °F 47.7 °F 29.9 in WNW 2.9 mph 5 mph 63% 0 in 111 W/m2
17:43 60.4 °F 47.8 °F 29.9 in West 0.9 mph 7 mph 63% 0 in 155 W/m2
17:48 60.6 °F 48 °F 29.9 in WNW 2 mph 6 mph 63% 0 in 104 W/m2
17:53 60.6 °F 47.1 °F 29.9 in West 2 mph 8 mph 61% 0 in 114 W/m2
17:58 60.4 °F 46.9 °F 29.9 in WNW 2.9 mph 4 mph 61% 0 in 47 W/m2
18:03 60.1 °F 46.9 °F 29.9 in Calm   3 mph 62% 0 in 42 W/m2
18:08 60.1 °F 46.9 °F 29.9 in NW 2.9 mph 4 mph 62% 0 in 37 W/m2
18:13 59.7 °F 46.8 °F 29.9 in ENE 0.9 mph 4 mph 62% 0 in 40 W/m2
18:18 59.5 °F 46.9 °F 29.9 in WNW 0.9 mph 3 mph 63% 0 in 42 W/m2
18:23 59.4 °F 46.8 °F 29.9 in WNW 2.9 mph 4 mph 63% 0 in 46 W/m2
18:28 59.4 °F 46.8 °F 29.9 in West 2 mph 3 mph 63% 0 in 49 W/m2
18:33 59.2 °F 46.9 °F 29.9 in WNW 2 mph 4 mph 64% 0 in 46 W/m2
18:38 59 °F 46.8 °F 29.9 in West 0.9 mph 3 mph 64% 0 in 37 W/m2
18:43 58.8 °F 46.6 °F 29.9 in Calm   3 mph 64% 0 in 33 W/m2
18:48 58.6 °F 46.9 °F 29.9 in Calm   2 mph 65% 0 in 28 W/m2
18:53 58.5 °F 46.8 °F 29.9 in West 0.9 mph 2 mph 65% 0 in 23 W/m2
18:58 58.3 °F 46.6 °F 29.9 in Calm   1 mph 65% 0 in 18 W/m2
19:03 57.9 °F 46.6 °F 29.9 in West 0.9 mph 3 mph 66% 0 in 12 W/m2
19:08 57.7 °F 46.9 °F 29.9 in West 0.9 mph 2 mph 67% 0 in 11 W/m2
19:13 57.6 °F 46.8 °F 29.9 in West 2 mph 3 mph 67% 0 in 9 W/m2
19:18 57.6 °F 46.8 °F 29.9 in West 2 mph 3 mph 67% 0 in 7 W/m2
19:23 57.6 °F 46.8 °F 29.9 in West 0.9 mph 2 mph 67% 0 in 5 W/m2
19:28 57.4 °F 46.6 °F 29.9 in West 0.9 mph 3 mph 67% 0 in 0 W/m2
19:33 57.4 °F 46.6 °F 29.9 in West 0.9 mph 3 mph 67% 0 in 0 W/m2
19:38 57.4 °F 46 °F 29.9 in West 2 mph 3 mph 66% 0 in 0 W/m2
19:43 57.4 °F 46 °F 29.9 in WSW 0.9 mph 2 mph 66% 0 in 0 W/m2
19:48 57.4 °F 46 °F 29.9 in West 0.9 mph 2 mph 66% 0 in 0 W/m2
19:53 57.4 °F 46 °F 29.9 in West 0.9 mph 2 mph 66% 0 in 0 W/m2
19:58 57.2 °F 45.9 °F 29.9 in Calm   2 mph 66% 0 in 0 W/m2
20:03 57 °F 46.2 °F 29.9 in West 0.9 mph 1 mph 67% 0 in 0 W/m2
20:08 56.8 °F 46 °F 29.9 in West 0.9 mph 3 mph 67% 0 in 0 W/m2
20:13 56.8 °F 46 °F 29.9 in West 0.9 mph 1 mph 67% 0 in 0 W/m2
20:18 56.7 °F 45.9 °F 29.9 in Calm   2 mph 67% 0 in 0 W/m2
20:23 56.5 °F 46 °F 29.9 in Calm     68% 0 in 0 W/m2
20:28 55.9 °F 45.9 °F 29.9 in Calm   2 mph 69% 0 in 0 W/m2
20:33 55.6 °F 45.5 °F 29.9 in Calm   1 mph 69% 0 in 0 W/m2
20:38 55.2 °F 45.7 °F 29.9 in West 2 mph 2 mph 70% 0 in 0 W/m2
20:43 55 °F 45.5 °F 29.9 in West 0.9 mph 1 mph 70% 0 in 0 W/m2
20:48 54.9 °F 45.3 °F 29.9 in West 0.9 mph 3 mph 70% 0 in 0 W/m2
20:53 54.9 °F 45.3 °F 29.9 in West 2 mph 3 mph 70% 0 in 0 W/m2
20:58 55 °F 45.5 °F 29.9 in West 0.9 mph 1 mph 70% 0 in 0 W/m2
21:03 54.9 °F 45.7 °F 29.9 in Calm   3 mph 71% 0 in 0 W/m2
21:08 54.3 °F 45.5 °F 29.9 in Calm     72% 0 in 0 W/m2
21:13 54.1 °F 45.7 °F 29.9 in Calm     73% 0 in 0 W/m2
21:18 53.6 °F 45.1 °F 29.9 in Calm   2 mph 73% 0 in 0 W/m2
21:23 53.2 °F 45.1 °F 29.9 in West 0.9 mph 1 mph 74% 0 in 0 W/m2
21:28 53.1 °F 45 °F 29.9 in West 2 mph 2 mph 74% 0 in 0 W/m2
21:33 52.5 °F 45.1 °F 29.9 in West 0.9 mph 1 mph 76% 0 in 0 W/m2
21:38 52.3 °F 45.3 °F 29.9 in West 0.9 mph 2 mph 77% 0 in 0 W/m2
21:43 52 °F 45 °F 29.9 in Calm   1 mph 77% 0 in 0 W/m2
21:48 51.8 °F 45.1 °F 29.9 in West 0.9 mph 2 mph 78% 0 in 0 W/m2
21:53 51.6 °F 45 °F 29.9 in West 0.9 mph 3 mph 78% 0 in 0 W/m2
21:58 51.8 °F 45.1 °F 29.9 in WSW 2.9 mph 4 mph 78% 0 in 0 W/m2
22:03 52.3 °F 45.3 °F 29.9 in Calm   1 mph 77% 0 in 0 W/m2
22:08 52.3 °F 45.3 °F 29.9 in Calm   4 mph 77% 0 in 0 W/m2
22:13 52.3 °F 45.3 °F 29.9 in WSW 0.9 mph 1 mph 77% 0 in 0 W/m2
22:18 52 °F 45.3 °F 29.9 in Calm     78% 0 in 0 W/m2
22:23 51.6 °F 45 °F 29.9 in Calm     78% 0 in 0 W/m2
22:29 51.3 °F 45 °F 29.9 in Calm     79% 0 in 0 W/m2
22:34 50.9 °F 45 °F 29.9 in Calm     80% 0 in 0 W/m2
22:39 50.5 °F 45 °F 29.9 in Calm     81% 0 in 0 W/m2
22:44 50.4 °F 44.8 °F 29.9 in Calm     81% 0 in 0 W/m2
22:49 50 °F 44.8 °F 29.9 in Calm     82% 0 in 0 W/m2
22:54 49.6 °F 44.4 °F 29.9 in Calm     82% 0 in 0 W/m2
22:59 49.5 °F 44.6 °F 29.9 in Calm     83% 0 in 0 W/m2
23:04 49.1 °F 44.2 °F 29.9 in Calm     83% 0 in 0 W/m2
23:09 48.7 °F 44.1 °F 29.9 in Calm     84% 0 in 0 W/m2
23:14 48.6 °F 43.9 °F 29.9 in Calm     84% 0 in 0 W/m2
23:19 48.4 °F 44.1 °F 29.9 in Calm     85% 0 in 0 W/m2
23:24 48 °F 44.1 °F 29.9 in Calm   2 mph 86% 0 in 0 W/m2
23:29 47.8 °F 43.9 °F 29.9 in Calm   1 mph 86% 0 in 0 W/m2
23:34 47.8 °F 43.9 °F 29.9 in Calm     86% 0 in 0 W/m2
23:39 47.7 °F 44.1 °F 29.9 in Calm   1 mph 87% 0 in 0 W/m2
23:44 47.5 °F 43.9 °F 29.9 in Calm   1 mph 87% 0 in 0 W/m2
23:49 47.5 °F 43.9 °F 29.9 in Calm     87% 0 in 0 W/m2
23:54 47.3 °F 43.7 °F 29.9 in WSW 0.9 mph 1 mph 87% 0 in 0 W/m2
23:59 47.5 °F 44.1 °F 29.9 in WNW 0.9 mph 3 mph 88% 0 in 0 W/m2
Juneau County Weather
Compliments of Weather Underground - 4 mb